createdAt,value
2017-11-19T00:00:59.093Z,100566.67
2017-11-19T00:03:26.611Z,100561.91
2017-11-19T00:05:54.174Z,100573.41
2017-11-19T00:08:21.708Z,100562.27
2017-11-19T00:10:49.226Z,100566.77
2017-11-19T00:13:16.737Z,100558.29
2017-11-19T00:15:44.276Z,100563.80
2017-11-19T00:18:11.811Z,100568.08
2017-11-19T00:20:39.360Z,100567.20
2017-11-19T00:23:06.870Z,100553.45
2017-11-19T00:25:34.391Z,100557.42
2017-11-19T00:28:01.915Z,100559.10
2017-11-19T00:30:29.467Z,100548.67
2017-11-19T00:32:57.004Z,100544.66
2017-11-19T00:35:24.523Z,100536.84
2017-11-19T00:37:52.043Z,100542.03
2017-11-19T00:40:19.559Z,100542.00
2017-11-19T00:42:47.089Z,100538.84
2017-11-19T00:45:14.604Z,100535.75
2017-11-19T00:47:42.312Z,100534.49
2017-11-19T00:50:09.871Z,100525.55
2017-11-19T00:52:37.402Z,100525.72
2017-11-19T00:55:04.924Z,100520.33
2017-11-19T00:57:32.775Z,100531.84
2017-11-19T01:00:00.750Z,100529.67
2017-11-19T01:02:28.277Z,100530.13
2017-11-19T01:04:55.797Z,100523.30
2017-11-19T01:07:23.787Z,100518.87
2017-11-19T01:09:51.799Z,100517.67
2017-11-19T01:12:19.330Z,100519.59
2017-11-19T01:14:46.863Z,100513.42
2017-11-19T01:17:14.390Z,100506.83
2017-11-19T01:19:41.908Z,100509.94
2017-11-19T01:22:09.572Z,100498.72
2017-11-19T01:24:37.104Z,100500.47
2017-11-19T01:27:04.614Z,100498.30
2017-11-19T01:29:32.150Z,100492.23
2017-11-19T01:31:59.672Z,100487.86
2017-11-19T01:34:27.194Z,100480.84
2017-11-19T01:36:54.724Z,100472.49
2017-11-19T01:39:22.251Z,100478.22
2017-11-19T01:41:49.778Z,100476.45
2017-11-19T01:44:17.359Z,100473.42
2017-11-19T01:46:44.905Z,100471.23
2017-11-19T01:49:12.438Z,100461.05
2017-11-19T01:51:40.021Z,100461.52
2017-11-19T01:54:07.613Z,100452.12
2017-11-19T01:56:35.740Z,100448.44
2017-11-19T01:59:03.260Z,100444.16
2017-11-19T02:01:30.794Z,100448.95
2017-11-19T02:03:58.318Z,100450.67
2017-11-19T02:06:25.834Z,100444.16
2017-11-19T02:08:53.543Z,100440.16
2017-11-19T02:11:21.063Z,100439.23
2017-11-19T02:13:48.583Z,100436.08
2017-11-19T02:16:16.101Z,100431.62
2017-11-19T02:18:43.654Z,100431.59
2017-11-19T02:21:11.728Z,100430.27
2017-11-19T02:23:39.243Z,100436.48
2017-11-19T02:26:06.766Z,100436.90
2017-11-19T02:28:34.598Z,100440.75
2017-11-19T02:31:02.107Z,100439.38
2017-11-19T02:33:29.626Z,100441.99
2017-11-19T02:35:57.173Z,100434.84
2017-11-19T02:38:24.684Z,100431.69
2017-11-19T02:40:52.215Z,100425.03
2017-11-19T02:43:19.729Z,100427.25
2017-11-19T02:45:47.251Z,100423.67
2017-11-19T02:48:14.769Z,100415.73
2017-11-19T02:50:42.279Z,100409.10
2017-11-19T02:53:09.805Z,100413.14
2017-11-19T02:55:37.351Z,100403.44
2017-11-19T02:58:04.910Z,100395.06
2017-11-19T03:00:32.481Z,100395.92
2017-11-19T03:03:00.008Z,100399.55
2017-11-19T03:05:27.532Z,100402.25
2017-11-19T03:07:55.047Z,100393.44
2017-11-19T03:10:22.581Z,100387.68
2017-11-19T03:12:50.103Z,100388.71
2017-11-19T03:15:17.627Z,100375.02
2017-11-19T03:17:45.246Z,100375.42
2017-11-19T03:20:12.777Z,100372.73
2017-11-19T03:22:40.300Z,100381.52
2017-11-19T03:25:07.816Z,100371.84
2017-11-19T03:27:35.338Z,100376.22
2017-11-19T03:30:02.881Z,100372.26
2017-11-19T03:32:30.395Z,100380.18
2017-11-19T03:34:57.919Z,100378.48
2017-11-19T03:37:25.448Z,100375.31
2017-11-19T03:39:52.967Z,100381.46
2017-11-19T03:42:20.491Z,100373.09
2017-11-19T03:44:48.007Z,100377.88
2017-11-19T03:47:15.526Z,100374.83
2017-11-19T03:49:43.071Z,100370.89
2017-11-19T03:52:10.582Z,100371.33
2017-11-19T03:54:38.116Z,100359.47
2017-11-19T03:57:05.634Z,100364.27
2017-11-19T03:59:33.147Z,100358.53
2017-11-19T04:02:00.666Z,100360.73
2017-11-19T04:04:28.187Z,100353.23
2017-11-19T04:06:55.708Z,100355.82
2017-11-19T04:09:23.450Z,100356.23
2017-11-19T04:11:50.976Z,100351.75
2017-11-19T04:14:18.540Z,100361.50
2017-11-19T04:16:46.352Z,100350.89
2017-11-19T04:19:14.036Z,100345.16
2017-11-19T04:21:41.555Z,100343.82
2017-11-19T04:24:09.075Z,100346.95
2017-11-19T04:26:36.598Z,100349.23
2017-11-19T04:29:04.102Z,100347.52
2017-11-19T04:31:31.619Z,100345.36
2017-11-19T04:33:59.147Z,100342.31
2017-11-19T04:36:26.671Z,100327.72
2017-11-19T04:38:54.198Z,100330.39
2017-11-19T04:41:21.727Z,100327.72
2017-11-19T04:43:49.242Z,100322.88
2017-11-19T04:46:16.759Z,100319.80
2017-11-19T04:48:44.280Z,100322.50
2017-11-19T04:51:11.797Z,100320.30
2017-11-19T04:53:39.325Z,100319.88
2017-11-19T04:56:07.197Z,100315.53
2017-11-19T04:58:34.746Z,100314.17
2017-11-19T05:01:02.542Z,100308.54
2017-11-19T05:03:30.199Z,100310.73
2017-11-19T05:05:57.827Z,100313.86
2017-11-19T05:08:25.386Z,100309.86
2017-11-19T05:10:52.898Z,100304.92
2017-11-19T05:13:20.415Z,100299.53
2017-11-19T05:15:47.935Z,100296.02
2017-11-19T05:18:15.460Z,100293.34
2017-11-19T05:20:42.980Z,100280.89
2017-11-19T05:23:10.508Z,100277.80
2017-11-19T05:25:38.026Z,100268.58
2017-11-19T05:28:05.539Z,100265.47
2017-11-19T05:30:33.060Z,100272.56
2017-11-19T05:33:00.591Z,100271.62
2017-11-19T05:35:28.107Z,100262.75
2017-11-19T05:37:55.636Z,100266.72
2017-11-19T05:40:23.169Z,100268.48
2017-11-19T05:42:50.683Z,100278.21
2017-11-19T05:45:18.200Z,100272.92
2017-11-19T05:47:45.721Z,100270.61
2017-11-19T05:50:13.238Z,100271.03
2017-11-19T05:52:40.761Z,100274.05
2017-11-19T05:55:08.280Z,100273.09
2017-11-19T05:57:35.875Z,100275.30
2017-11-19T06:00:03.407Z,100283.59
2017-11-19T06:02:30.941Z,100276.51
2017-11-19T06:04:58.464Z,100270.76
2017-11-19T06:07:25.985Z,100268.11
2017-11-19T06:09:53.503Z,100273.75
2017-11-19T06:12:21.020Z,100270.72
2017-11-19T06:14:48.540Z,100266.71
2017-11-19T06:17:16.065Z,100267.95
2017-11-19T06:19:43.592Z,100263.49
2017-11-19T06:22:11.104Z,100264.84
2017-11-19T06:24:38.631Z,100261.18
2017-11-19T06:27:06.153Z,100264.70
2017-11-19T06:29:33.668Z,100254.03
2017-11-19T06:32:01.192Z,100250.47
2017-11-19T06:34:28.727Z,100252.69
2017-11-19T06:36:56.253Z,100249.19
2017-11-19T06:39:23.777Z,100253.94
2017-11-19T06:41:51.308Z,100250.80
2017-11-19T06:44:18.835Z,100243.73
2017-11-19T06:46:46.357Z,100249.77
2017-11-19T06:49:13.875Z,100250.63
2017-11-19T06:51:41.407Z,100255.02
2017-11-19T06:54:08.916Z,100259.71
2017-11-19T06:56:36.467Z,100249.12
2017-11-19T06:59:04.014Z,100252.52
2017-11-19T07:01:31.538Z,100251.30
2017-11-19T07:03:59.056Z,100254.74
2017-11-19T07:06:26.569Z,100253.95
2017-11-19T07:08:54.092Z,100251.53
2017-11-19T07:11:21.603Z,100257.61
2017-11-19T07:13:49.122Z,100247.78
2017-11-19T07:16:16.638Z,100264.20
2017-11-19T07:18:44.164Z,100258.45
2017-11-19T07:21:11.683Z,100251.53
2017-11-19T07:23:39.205Z,100239.05
2017-11-19T07:26:06.743Z,100252.20
2017-11-19T07:28:34.261Z,100253.45
2017-11-19T07:31:01.780Z,100256.06
2017-11-19T07:33:29.308Z,100246.71
2017-11-19T07:35:56.839Z,100239.05
2017-11-19T07:38:24.403Z,100241.11
2017-11-19T07:40:51.918Z,100241.34
2017-11-19T07:43:19.463Z,100234.51
2017-11-19T07:45:46.979Z,100222.84
2017-11-19T07:48:14.504Z,100228.34
2017-11-19T07:50:42.015Z,100228.24
2017-11-19T07:53:09.559Z,100215.59
2017-11-19T07:55:37.133Z,100212.00
2017-11-19T07:58:04.670Z,100207.17
2017-11-19T08:00:32.194Z,100204.57
2017-11-19T08:02:59.726Z,100202.84
2017-11-19T08:05:27.243Z,100204.42
2017-11-19T08:07:54.756Z,100210.37
2017-11-19T08:10:22.276Z,100212.20
2017-11-19T08:12:49.796Z,100209.86
2017-11-19T08:15:17.316Z,100217.10
2017-11-19T08:17:44.836Z,100223.72
2017-11-19T08:20:12.362Z,100223.42
2017-11-19T08:22:39.875Z,100222.52
2017-11-19T08:25:07.391Z,100215.65
2017-11-19T08:27:34.913Z,100198.44
2017-11-19T08:30:02.444Z,100214.16
2017-11-19T08:32:29.966Z,100214.13
2017-11-19T08:34:57.487Z,100209.42
2017-11-19T08:37:25.003Z,100215.55
2017-11-19T08:39:52.520Z,100217.23
2017-11-19T08:42:20.040Z,100216.02
2017-11-19T08:44:47.556Z,100208.19
2017-11-19T08:47:15.067Z,100211.44
2017-11-19T08:49:42.584Z,100204.97
2017-11-19T08:52:10.103Z,100202.25
2017-11-19T08:54:37.615Z,100211.69
2017-11-19T08:57:05.135Z,100213.91
2017-11-19T08:59:32.764Z,100204.36
2017-11-19T09:02:00.284Z,100205.47
2017-11-19T09:04:27.808Z,100198.31
2017-11-19T09:06:55.320Z,100201.81
2017-11-19T09:09:22.835Z,100203.20
2017-11-19T09:11:50.347Z,100196.95
2017-11-19T09:14:17.858Z,100196.02
2017-11-19T09:16:45.378Z,100205.41
2017-11-19T09:19:12.913Z,100197.94
2017-11-19T09:21:40.444Z,100211.66
2017-11-19T09:24:07.975Z,100211.92
2017-11-19T09:26:35.489Z,100205.98
2017-11-19T09:29:03.013Z,100209.23
2017-11-19T09:31:30.538Z,100204.97
2017-11-19T09:33:58.056Z,100204.59
2017-11-19T09:36:25.570Z,100207.96
2017-11-19T09:38:53.084Z,100215.83
2017-11-19T09:41:20.681Z,100216.11
2017-11-19T09:43:48.232Z,100219.86
2017-11-19T09:46:15.775Z,100197.60
2017-11-19T09:48:43.291Z,100199.64
2017-11-19T09:51:10.803Z,100198.39
2017-11-19T09:53:38.319Z,100192.59
2017-11-19T09:56:05.843Z,100189.41
2017-11-19T09:58:33.358Z,100189.84
2017-11-19T10:01:00.883Z,100197.03
2017-11-19T10:03:28.396Z,100197.34
2017-11-19T10:05:55.912Z,100190.11
2017-11-19T10:08:23.438Z,100198.93
2017-11-19T10:10:50.946Z,100200.92
2017-11-19T10:13:18.479Z,100206.56
2017-11-19T10:15:46.102Z,100209.08
2017-11-19T10:18:13.615Z,100189.56
2017-11-19T10:20:41.148Z,100192.96
2017-11-19T10:23:08.667Z,100184.70
2017-11-19T10:25:36.182Z,100190.77
2017-11-19T10:28:03.905Z,100191.22
2017-11-19T10:30:31.778Z,100184.09
2017-11-19T10:32:59.644Z,100189.94
2017-11-19T10:35:27.734Z,100194.03
2017-11-19T10:37:55.313Z,100179.58
2017-11-19T10:40:22.833Z,100175.63
2017-11-19T10:42:50.382Z,100171.03
2017-11-19T10:45:17.919Z,100169.83
2017-11-19T10:47:45.451Z,100182.16
2017-11-19T10:50:13.021Z,100165.20
2017-11-19T10:52:40.844Z,100167.07
2017-11-19T10:55:08.380Z,100165.50
2017-11-19T10:57:36.537Z,100176.76
2017-11-19T11:00:04.042Z,100166.04
2017-11-19T11:02:31.560Z,100166.84
2017-11-19T11:04:59.124Z,100155.81
2017-11-19T11:07:26.882Z,100169.27
2017-11-19T11:09:54.476Z,100171.63
2017-11-19T11:12:22.003Z,100172.93
2017-11-19T11:14:49.535Z,100174.96
2017-11-19T11:17:17.128Z,100185.55
2017-11-19T11:19:44.922Z,100183.91
2017-11-19T11:22:12.515Z,100179.16
2017-11-19T11:24:40.124Z,100171.00
2017-11-19T11:27:08.215Z,100176.24
2017-11-19T11:29:35.818Z,100162.78
2017-11-19T11:32:03.745Z,100158.50
2017-11-19T11:34:31.605Z,100166.46
2017-11-19T11:36:59.196Z,100165.44
2017-11-19T11:39:26.897Z,100154.00
2017-11-19T11:41:54.465Z,100168.77
2017-11-19T11:44:22.571Z,100155.05
2017-11-19T11:46:50.152Z,100144.98
2017-11-19T11:49:17.688Z,100141.03
2017-11-19T11:51:45.353Z,100137.02
2017-11-19T11:54:13.223Z,100139.41
2017-11-19T11:56:40.882Z,100143.34
2017-11-19T11:59:08.544Z,100149.36
2017-11-19T12:01:36.137Z,100140.70
2017-11-19T12:04:04.012Z,100138.95
2017-11-19T12:06:31.579Z,100138.95
2017-11-19T12:08:59.112Z,100135.63
2017-11-19T12:11:26.698Z,100145.28
2017-11-19T12:13:54.230Z,100144.92
2017-11-19T12:16:21.786Z,100147.55
2017-11-19T12:18:49.539Z,100150.20
2017-11-19T12:21:17.384Z,100148.45
2017-11-19T12:23:45.091Z,100151.55
2017-11-19T12:26:12.611Z,100148.81
2017-11-19T12:28:40.150Z,100146.63
2017-11-19T12:31:07.711Z,100148.78
2017-11-19T12:33:35.235Z,100151.73
2017-11-19T12:36:02.869Z,100143.16
2017-11-19T12:38:30.636Z,100148.30
2017-11-19T12:40:58.161Z,100149.92
2017-11-19T12:43:25.694Z,100144.52
2017-11-19T12:45:53.299Z,100153.38
2017-11-19T12:48:20.853Z,100153.31
2017-11-19T12:50:48.447Z,100142.13
2017-11-19T12:53:16.024Z,100141.89
2017-11-19T12:55:43.567Z,100138.64
2017-11-19T12:58:11.420Z,100154.64
2017-11-19T13:00:39.167Z,100149.02
2017-11-19T13:03:06.729Z,100150.31
2017-11-19T13:05:34.268Z,100156.48
2017-11-19T13:08:02.176Z,100162.56
2017-11-19T13:10:30.141Z,100150.85
2017-11-19T13:12:57.713Z,100146.39
2017-11-19T13:15:25.234Z,100139.67
2017-11-19T13:17:52.779Z,100153.85
2017-11-19T13:20:20.580Z,100144.84
2017-11-19T13:22:48.201Z,100158.94
2017-11-19T13:25:16.683Z,100143.26
2017-11-19T13:27:44.207Z,100152.53
2017-11-19T13:30:11.772Z,100147.19
2017-11-19T13:32:39.320Z,100153.02
2017-11-19T13:35:07.145Z,100153.00
2017-11-19T13:37:35.305Z,100153.02
2017-11-19T13:40:02.910Z,100157.41
2017-11-19T13:42:30.574Z,100156.48
2017-11-19T13:44:58.114Z,100157.91
2017-11-19T13:47:25.648Z,100172.49
2017-11-19T13:49:53.175Z,100171.86
2017-11-19T13:52:20.869Z,100181.34
2017-11-19T13:54:48.406Z,100176.31
2017-11-19T13:57:15.956Z,100182.28
2017-11-19T13:59:43.508Z,100193.83
2017-11-19T14:02:11.119Z,100186.00
2017-11-19T14:04:38.636Z,100181.88
2017-11-19T14:07:06.247Z,100179.52
2017-11-19T14:09:33.778Z,100183.58
2017-11-19T14:12:01.302Z,100181.05
2017-11-19T14:14:28.827Z,100184.94
2017-11-19T14:16:57.133Z,100186.09
2017-11-19T14:19:24.997Z,100174.89
2017-11-19T14:21:52.578Z,100194.81
2017-11-19T14:24:20.530Z,100200.88
2017-11-19T14:26:48.095Z,100183.31
2017-11-19T14:29:15.655Z,100180.31
2017-11-19T14:31:43.177Z,100174.25
2017-11-19T14:34:10.692Z,100184.03
2017-11-19T14:36:38.219Z,100173.58
2017-11-19T14:39:05.744Z,100172.80
2017-11-19T14:41:33.301Z,100176.55
2017-11-19T14:44:00.872Z,100183.92
2017-11-19T14:46:28.386Z,100190.39
2017-11-19T14:48:55.975Z,100179.91
2017-11-19T14:51:23.504Z,100186.67
2017-11-19T14:53:51.349Z,100186.67
2017-11-19T14:56:19.027Z,100192.19
2017-11-19T14:58:46.580Z,100203.50
2017-11-19T15:01:14.544Z,100208.41
2017-11-19T15:03:42.207Z,100203.13
2017-11-19T15:06:10.177Z,100202.89
2017-11-19T15:08:37.780Z,100203.21
2017-11-19T15:11:05.437Z,100206.70
2017-11-19T15:13:33.755Z,100216.20
2017-11-19T15:16:01.295Z,100231.80
2017-11-19T15:18:28.837Z,100228.62
2017-11-19T15:20:57.022Z,100236.95
2017-11-19T15:23:24.726Z,100213.36
2017-11-19T15:25:52.319Z,100219.41
2017-11-19T15:28:20.009Z,100224.17
2017-11-19T15:30:47.568Z,100217.47
2017-11-19T15:33:15.215Z,100224.75
2017-11-19T15:35:42.931Z,100228.77
2017-11-19T15:38:10.536Z,100229.80
2017-11-19T15:40:38.238Z,100240.00
2017-11-19T15:43:05.842Z,100251.45
2017-11-19T15:45:33.393Z,100238.39
2017-11-19T15:48:00.909Z,100235.67
2017-11-19T15:50:28.432Z,100238.53
2017-11-19T15:52:56.071Z,100236.94
2017-11-19T15:55:23.612Z,100232.02
2017-11-19T15:57:51.977Z,100230.92
2017-11-19T16:00:19.520Z,100231.90
2017-11-19T16:02:47.125Z,100220.45
2017-11-19T16:05:14.652Z,100224.38
2017-11-19T16:07:42.171Z,100226.93
2017-11-19T16:10:09.683Z,100233.33
2017-11-19T16:12:37.421Z,100225.67
2017-11-19T16:15:05.038Z,100225.97
2017-11-19T16:17:32.907Z,100228.48
2017-11-19T16:20:00.557Z,100228.94
2017-11-19T16:22:28.462Z,100224.75
2017-11-19T16:24:56.230Z,100223.71
2017-11-19T16:27:23.823Z,100212.48
2017-11-19T16:29:51.487Z,100217.70
2017-11-19T16:32:19.128Z,100224.81
2017-11-19T16:34:46.742Z,100219.46
2017-11-19T16:37:14.631Z,100263.76
2017-11-19T16:39:42.265Z,100248.02
2017-11-19T16:42:10.061Z,100240.71
2017-11-19T16:44:37.634Z,100249.03
2017-11-19T16:47:05.279Z,100247.29
2017-11-19T16:49:33.190Z,100261.05
2017-11-19T16:52:00.918Z,100260.69
2017-11-19T16:54:28.603Z,100280.72
2017-11-19T16:56:56.141Z,100279.28
2017-11-19T16:59:23.665Z,100268.52
2017-11-19T17:01:51.194Z,100262.22
2017-11-19T17:04:18.711Z,100298.16
2017-11-19T17:06:46.230Z,100311.33
2017-11-19T17:09:13.774Z,100301.50
2017-11-19T17:11:41.301Z,100301.25
2017-11-19T17:14:08.836Z,100301.23
2017-11-19T17:16:36.350Z,100291.73
2017-11-19T17:19:03.875Z,100298.03
2017-11-19T17:21:31.388Z,100295.73
2017-11-19T17:23:58.903Z,100311.47
2017-11-19T17:26:26.424Z,100301.23
2017-11-19T17:28:53.945Z,100311.45
2017-11-19T17:31:21.596Z,100317.00
2017-11-19T17:33:49.134Z,100324.08
2017-11-19T17:36:22.256Z,100323.16
2017-11-19T17:38:49.775Z,100319.63
2017-11-19T17:41:17.283Z,100327.19
2017-11-19T17:43:44.791Z,100319.72
2017-11-19T17:46:13.169Z,100316.06
2017-11-19T17:48:40.808Z,100321.69
2017-11-19T17:51:08.339Z,100315.93
2017-11-19T17:53:35.859Z,100316.73
2017-11-19T17:56:03.410Z,100321.67
2017-11-19T17:58:30.926Z,100317.96
2017-11-19T18:00:58.444Z,100318.37
2017-11-19T18:03:25.965Z,100323.05
2017-11-19T18:05:53.491Z,100329.63
2017-11-19T18:08:21.013Z,100325.83
2017-11-19T18:10:48.527Z,100323.56
2017-11-19T18:13:16.058Z,100326.22
2017-11-19T18:15:43.588Z,100331.00
2017-11-19T18:18:11.115Z,100333.20
2017-11-19T18:20:38.646Z,100342.86
2017-11-19T18:23:06.188Z,100334.89
2017-11-19T18:25:33.729Z,100345.76
2017-11-19T18:28:01.256Z,100351.72
2017-11-19T18:30:28.774Z,100349.41
2017-11-19T18:32:56.287Z,100344.55
2017-11-19T18:35:23.814Z,100346.41
2017-11-19T18:37:51.327Z,100355.59
2017-11-19T18:40:19.407Z,100352.16
2017-11-19T18:42:46.925Z,100360.15
2017-11-19T18:45:14.438Z,100374.30
2017-11-19T18:47:41.963Z,100378.36
2017-11-19T18:50:09.508Z,100378.02
2017-11-19T18:52:37.162Z,100389.92
2017-11-19T18:55:04.682Z,100393.20
2017-11-19T18:57:32.203Z,100387.02
2017-11-19T18:59:59.853Z,100406.05
2017-11-19T19:02:27.382Z,100397.76
2017-11-19T19:04:54.899Z,100392.45
2017-11-19T19:07:22.438Z,100401.28
2017-11-19T19:09:49.955Z,100412.02
2017-11-19T19:12:17.538Z,100416.03
2017-11-19T19:14:45.056Z,100416.52
2017-11-19T19:17:12.600Z,100425.80
2017-11-19T19:19:40.137Z,100426.78
2017-11-19T19:22:07.667Z,100430.70
2017-11-19T19:24:35.321Z,100443.13
2017-11-19T19:27:03.066Z,100444.48
2017-11-19T19:29:30.873Z,100452.48
2017-11-19T19:31:58.606Z,100453.77
2017-11-19T19:34:26.237Z,100456.89
2017-11-19T19:36:53.914Z,100465.73
2017-11-19T19:39:21.472Z,100464.41
2017-11-19T19:41:49.067Z,100469.71
2017-11-19T19:44:16.845Z,100473.67
2017-11-19T19:46:44.809Z,100477.22
2017-11-19T19:49:12.377Z,100473.34
2017-11-19T19:51:40.108Z,100483.12
2017-11-19T19:54:07.866Z,100498.58
2017-11-19T19:56:35.443Z,100505.20
2017-11-19T19:59:03.347Z,100498.52
2017-11-19T20:01:31.128Z,100516.57
2017-11-19T20:03:58.779Z,100514.83
2017-11-19T20:06:26.708Z,100520.49
2017-11-19T20:08:54.319Z,100528.48
2017-11-19T20:11:21.920Z,100525.24
2017-11-19T20:13:49.722Z,100527.34
2017-11-19T20:16:17.484Z,100536.05
2017-11-19T20:18:45.036Z,100546.71
2017-11-19T20:21:12.754Z,100544.91
2017-11-19T20:23:40.309Z,100548.38
2017-11-19T20:26:08.002Z,100559.45
2017-11-19T20:28:35.663Z,100552.39
2017-11-19T20:31:03.506Z,100565.19
2017-11-19T20:33:32.023Z,100559.13
2017-11-19T20:35:59.907Z,100566.25
2017-11-19T20:38:27.822Z,100568.39
2017-11-19T20:40:55.675Z,100585.72
2017-11-19T20:43:23.281Z,100583.95
2017-11-19T20:45:50.796Z,100586.69
2017-11-19T20:48:18.325Z,100597.74
2017-11-19T20:50:46.047Z,100606.20
2017-11-19T20:53:13.773Z,100607.56
2017-11-19T20:55:41.619Z,100608.88
2017-11-19T20:58:09.295Z,100612.02
2017-11-19T21:00:36.936Z,100619.52
2017-11-19T21:03:04.670Z,100616.95
2017-11-19T21:05:32.451Z,100624.53
2017-11-19T21:08:00.315Z,100634.28
2017-11-19T21:10:28.036Z,100639.13
2017-11-19T21:12:55.661Z,100650.63
2017-11-19T21:15:23.358Z,100654.18
2017-11-19T21:17:50.898Z,100661.23
2017-11-19T21:20:18.569Z,100662.92
2017-11-19T21:22:46.419Z,100665.58
2017-11-19T21:25:14.283Z,100673.47
2017-11-19T21:27:41.856Z,100667.28
2017-11-19T21:30:09.400Z,100674.77
2017-11-19T21:32:37.073Z,100686.19
2017-11-19T21:35:04.857Z,100692.31
2017-11-19T21:37:32.490Z,100683.52
2017-11-19T21:40:00.124Z,100698.96
2017-11-19T21:42:27.863Z,100697.20
2017-11-19T21:44:55.789Z,100701.63
2017-11-19T21:47:23.359Z,100705.27
2017-11-19T21:49:51.397Z,100711.06
2017-11-19T21:52:18.932Z,100720.86
2017-11-19T21:54:46.449Z,100717.31
2017-11-19T21:57:13.989Z,100716.98
2017-11-19T21:59:41.495Z,100721.89
2017-11-19T22:02:09.012Z,100727.23
2017-11-19T22:04:36.539Z,100717.12
2017-11-19T22:07:04.062Z,100732.70
2017-11-19T22:09:31.604Z,100742.52
2017-11-19T22:11:59.132Z,100743.08
2017-11-19T22:14:26.653Z,100736.52
2017-11-19T22:16:54.184Z,100743.73
2017-11-19T22:19:21.711Z,100746.82
2017-11-19T22:21:49.227Z,100741.66
2017-11-19T22:24:16.759Z,100748.77
2017-11-19T22:26:44.281Z,100758.58
2017-11-19T22:29:11.794Z,100757.80
2017-11-19T22:31:39.319Z,100765.00
2017-11-19T22:34:06.839Z,100761.50
2017-11-19T22:36:34.372Z,100762.46
2017-11-19T22:39:01.902Z,100767.73
2017-11-19T22:41:29.426Z,100773.59
2017-11-19T22:43:56.949Z,100777.62
2017-11-19T22:46:24.482Z,100778.52
2017-11-19T22:48:52.003Z,100778.14
2017-11-19T22:51:19.520Z,100775.97
2017-11-19T22:53:47.055Z,100786.14
2017-11-19T22:56:14.590Z,100785.31
2017-11-19T22:58:42.111Z,100791.08
2017-11-19T23:01:09.627Z,100789.78
2017-11-19T23:03:37.142Z,100794.19
2017-11-19T23:06:04.689Z,100796.08
2017-11-19T23:08:32.210Z,100799.64
2017-11-19T23:10:59.727Z,100803.16
2017-11-19T23:13:27.256Z,100812.92
2017-11-19T23:15:54.785Z,100806.80
2017-11-19T23:18:22.333Z,100812.55
2017-11-19T23:20:49.864Z,100816.06
2017-11-19T23:23:17.391Z,100811.70
2017-11-19T23:25:44.898Z,100821.03
2017-11-19T23:28:12.411Z,100828.55
2017-11-19T23:30:39.929Z,100825.94
2017-11-19T23:33:07.457Z,100825.03
2017-11-19T23:35:34.982Z,100824.50
2017-11-19T23:38:02.510Z,100826.81
2017-11-19T23:40:30.031Z,100835.67
2017-11-19T23:42:57.542Z,100843.69
2017-11-19T23:45:25.065Z,100847.69
2017-11-19T23:47:52.600Z,100848.58
2017-11-19T23:50:20.135Z,100851.73
2017-11-19T23:52:47.662Z,100853.06
2017-11-19T23:55:15.207Z,100856.12
2017-11-19T23:57:42.724Z,100860.59
